Time;durP1;ratioP1;P1;durP2;ratioP2;P2;SDS_P1;SDS_P2;PMS_P1;PMS_P2;Temp;Humidity;BMP_temperature;BMP_pressure;BME280_temperature;BME280_humidity;BME280_pressure;Samples;Min_cycle;Max_cycle;Signal;HPM_P1;HPM_P2
2023/08/11 00:01:13;;;;;;;10.88;5.32;;;17.30;99.90;;;18.05;67.43;101043.19;4971180;28;20098;-85
2023/08/11 00:03:43;;;;;;;6.85;5.15;;;17.20;99.90;;;18.05;67.32;101048.59;4967325;28;20043;-85
2023/08/11 00:06:10;;;;;;;6.82;5.13;;;17.20;99.90;;;18.02;67.56;101053.44;4962663;28;20053;-85
2023/08/11 00:08:39;;;;;;;10.02;5.10;;;17.20;99.90;;;18.02;67.15;101056.13;4968433;28;20035;-85
2023/08/11 00:11:07;;;;;;;9.43;5.50;;;17.20;99.90;;;17.99;67.39;101045.81;4972579;28;20570;-86
2023/08/11 00:13:34;;;;;;;9.40;5.25;;;17.20;99.90;;;17.99;67.50;101051.22;4968384;28;20464;-86
2023/08/11 00:16:03;;;;;;;6.93;5.30;;;17.20;99.90;;;17.98;67.68;101054.16;4961937;28;20078;-86
2023/08/11 00:18:30;;;;;;;8.00;5.10;;;17.20;99.90;;;17.98;67.52;101054.16;4966167;28;20038;-86
2023/08/11 00:21:00;;;;;;;7.28;5.05;;;17.20;99.90;;;17.93;67.51;101046.81;4964655;28;20057;-86
2023/08/11 00:23:27;;;;;;;9.75;4.88;;;17.10;99.90;;;17.91;67.64;101046.25;4980777;28;20053;-86
2023/08/11 00:25:56;;;;;;;7.85;5.10;;;17.10;99.90;;;17.91;67.73;101043.53;4958661;28;20051;-86
2023/08/11 00:28:23;;;;;;;10.77;5.05;;;17.10;99.90;;;17.91;67.91;101045.41;4967756;28;20106;-86
2023/08/11 00:30:50;;;;;;;10.80;4.85;;;17.10;99.90;;;17.87;67.69;101047.78;4975614;28;20047;-86
2023/08/11 00:33:18;;;;;;;7.82;5.07;;;17.10;99.90;;;17.88;67.68;101048.59;4963550;28;20138;-86
2023/08/11 00:35:46;;;;;;;8.43;5.30;;;17.00;99.90;;;17.87;67.71;101047.78;4975531;28;20419;-86
2023/08/11 00:38:13;;;;;;;7.65;4.93;;;17.00;99.90;;;17.84;67.64;101048.28;4967589;28;20043;-86
2023/08/11 00:40:41;;;;;;;9.05;4.85;;;17.00;99.90;;;17.84;67.42;101037.47;4954660;28;20130;-86
2023/08/11 00:43:09;;;;;;;7.63;4.90;;;17.00;99.90;;;17.83;67.52;101035.84;4970968;28;20093;-86
2023/08/11 00:45:38;;;;;;;8.32;5.15;;;17.00;99.90;;;17.82;67.65;101034.22;4973423;28;20046;-85
2023/08/11 00:48:06;;;;;;;6.38;4.47;;;17.00;99.90;;;17.81;67.76;101034.44;4957601;28;20535;-85
2023/08/11 00:50:33;;;;;;;7.38;4.90;;;17.00;99.90;;;17.79;67.77;101029.31;4961196;28;20039;-85
2023/08/11 00:53:01;;;;;;;7.28;4.65;;;17.00;99.90;;;17.77;67.81;101028.75;4969168;28;20155;-85
2023/08/11 00:55:29;;;;;;;11.10;5.03;;;16.90;99.90;;;17.75;67.72;101028.97;4962164;28;20460;-85
2023/08/11 00:57:56;;;;;;;8.68;5.07;;;16.90;99.90;;;17.75;67.92;101030.84;4964938;28;20093;-85
2023/08/11 01:00:25;;;;;;;10.15;5.47;;;17.00;99.90;;;17.74;67.93;101030.03;4963753;28;20040;-85
2023/08/11 01:02:53;;;;;;;9.18;4.90;;;16.90;99.90;;;17.71;67.25;101022.41;4980692;28;20050;-86
2023/08/11 01:05:21;;;;;;;8.38;5.05;;;16.90;99.90;;;17.71;67.77;101017.03;4981115;28;20512;-85
2023/08/11 01:08:05;;;;;;;11.30;4.95;;;16.90;99.90;;;17.71;67.96;101017.03;4969439;28;20134;-86
2023/08/11 01:10:46;;;;;;;9.57;5.25;;;16.90;99.90;;;17.70;67.88;101014.53;4969052;28;20075;-86
2023/08/11 01:13:18;;;;;;;;;;;16.90;99.90;;;17.68;67.95;101016.69;4978839;28;20100;-86
2023/08/11 01:15:52;;;;;;;9.43;5.60;;;16.90;99.90;;;17.64;68.07;101019.03;4968096;28;20008;-85
2023/08/11 01:18:21;;;;;;;9.98;5.40;;;16.90;99.90;;;17.64;68.23;101013.66;4969212;28;20070;-85
2023/08/11 01:20:55;;;;;;;15.00;5.20;;;16.90;99.90;;;17.65;68.27;101017.16;4982620;28;20046;-85
2023/08/11 01:23:25;;;;;;;9.18;5.45;;;16.90;99.90;;;17.63;68.22;101011.22;4954346;28;20098;-85
2023/08/11 01:25:52;;;;;;;9.85;5.95;;;16.80;99.90;;;17.61;68.32;101019.53;4967338;28;20138;-86
2023/08/11 01:28:20;;;;;;;9.07;5.45;;;16.80;99.90;;;17.61;68.05;101011.44;4964150;28;20039;-85
2023/08/11 01:30:48;;;;;;;8.75;5.53;;;16.80;99.90;;;17.60;68.07;101011.69;4972007;28;20063;-85
2023/08/11 01:33:15;;;;;;;8.40;5.50;;;16.80;99.90;;;17.58;68.11;101013.81;4961735;28;20066;-85
2023/08/11 01:35:42;;;;;;;8.90;5.57;;;16.80;99.90;;;17.56;67.94;101005.94;4953776;28;20038;-85
2023/08/11 01:38:10;;;;;;;7.72;5.22;;;16.80;99.90;;;17.57;68.13;101004.91;4958474;28;20051;-85
2023/08/11 01:40:38;;;;;;;11.00;5.22;;;16.70;99.90;;;17.56;68.20;101005.94;4968133;28;20039;-85
2023/08/11 01:43:10;;;;;;;9.68;5.28;;;16.80;99.90;;;17.53;68.29;101003.75;4952539;28;20138;-85
2023/08/11 01:45:38;;;;;;;7.63;5.30;;;16.80;99.90;;;17.54;68.42;101010.78;4978206;28;20496;-85
2023/08/11 01:48:08;;;;;;;10.48;5.10;;;16.80;99.90;;;17.52;68.18;101004.84;4975568;28;20459;-85
2023/08/11 01:50:37;;;;;;;6.43;4.60;;;16.70;99.90;;;17.50;68.30;101005.06;4957638;28;20471;-85
2023/08/11 01:53:04;;;;;;;8.55;5.18;;;16.70;99.90;;;17.49;68.11;101008.00;4976793;28;20516;-85
2023/08/11 01:55:33;;;;;;;8.20;5.20;;;16.70;99.90;;;17.47;68.33;101005.56;4968512;28;20045;-85
2023/08/11 01:58:02;;;;;;;10.25;5.38;;;16.70;99.90;;;17.47;68.09;101002.03;4959730;28;20055;-85
2023/08/11 02:00:29;;;;;;;8.35;4.82;;;16.70;99.90;;;17.45;68.23;101001.47;4955660;28;20039;-85
2023/08/11 02:02:58;;;;;;;7.13;4.55;;;16.70;99.90;;;17.42;68.29;101002.78;4965193;28;20138;-86
2023/08/11 02:05:26;;;;;;;8.65;5.20;;;16.60;99.90;;;17.42;68.19;101001.94;4969806;28;20034;-86
2023/08/11 02:07:55;;;;;;;6.97;4.97;;;16.60;99.90;;;17.41;68.13;100993.03;4957511;28;20043;-86
2023/08/11 02:10:22;;;;;;;8.27;4.85;;;16.60;99.90;;;17.42;68.17;100996.53;4978289;28;20085;-86
2023/08/11 02:12:50;;;;;;;8.38;4.78;;;16.60;99.90;;;17.40;67.91;100987.88;4979731;28;20093;-86
2023/08/11 02:15:19;;;;;;;7.05;4.78;;;16.60;99.90;;;17.37;67.96;100986.50;4963615;28;20051;-85
2023/08/11 02:17:46;;;;;;;11.43;5.20;;;16.60;99.90;;;17.35;68.07;100975.13;4966096;28;20485;-85
2023/08/11 02:20:18;;;;;;;7.82;4.90;;;16.60;99.90;;;17.35;68.03;100979.72;4962403;28;20583;-85
2023/08/11 02:22:46;;;;;;;8.25;4.90;;;16.60;99.90;;;17.34;67.99;100981.59;4961427;28;20969;-85
2023/08/11 02:25:14;;;;;;;6.97;4.82;;;16.60;99.90;;;17.32;67.86;100980.19;4963574;28;20047;-86
2023/08/11 02:27:42;;;;;;;9.73;4.90;;;16.50;99.90;;;17.28;67.97;100977.19;4964917;28;20039;-85
2023/08/11 02:30:11;;;;;;;8.90;4.70;;;16.50;99.90;;;17.28;67.97;100979.88;4970524;28;20130;-86
2023/08/11 02:32:41;;;;;;;11.23;4.82;;;16.50;99.90;;;17.28;67.92;100970.97;4964679;28;20492;-85
2023/08/11 02:35:10;;;;;;;6.18;4.53;;;16.50;99.90;;;17.28;68.25;100970.97;4973510;28;20086;-85
2023/08/11 02:37:38;;;;;;;6.82;4.88;;;16.50;99.90;;;17.27;68.19;100962.03;4967226;28;20063;-86
2023/08/11 02:40:09;;;;;;;10.30;4.78;;;16.50;99.90;;;17.24;68.08;100968.75;4968170;28;20043;-86
2023/08/11 02:42:38;;;;;;;11.13;5.18;;;16.40;99.90;;;17.24;68.26;100973.34;4973442;28;20070;-85
2023/08/11 02:45:09;;;;;;;11.18;5.25;;;16.50;99.90;;;17.23;68.17;100977.09;4968285;28;20046;-85
2023/08/11 02:47:36;;;;;;;7.47;5.55;;;16.50;99.90;;;17.21;68.09;100966.53;4960062;28;20050;-85
2023/08/11 02:50:08;;;;;;;6.95;4.65;;;16.50;99.90;;;17.21;68.18;100965.72;4975837;28;20042;-85
2023/08/11 02:52:35;;;;;;;9.63;4.90;;;16.40;99.90;;;17.20;68.00;100966.78;4962333;28;20043;-85
2023/08/11 02:55:04;;;;;;;8.75;4.82;;;16.40;99.90;;;17.20;68.30;100967.59;4971618;28;20138;-86
2023/08/11 02:57:32;;;;;;;11.57;5.32;;;16.40;99.90;;;17.19;68.12;100971.38;4969958;28;20041;-86
2023/08/11 02:59:59;;;;;;;8.32;4.90;;;16.40;99.90;;;17.19;68.33;100973.25;4965982;28;20054;-85
2023/08/11 03:02:27;;;;;;;9.32;4.78;;;16.40;99.90;;;17.18;68.18;100963.53;4978825;28;20509;-85
2023/08/11 03:04:54;;;;;;;10.43;5.40;;;16.40;99.90;;;17.17;68.30;100975.34;4955361;28;20494;-85
2023/08/11 03:07:24;;;;;;;10.60;4.80;;;16.30;99.90;;;17.15;68.09;100969.41;4963082;28;20039;-84
2023/08/11 03:09:52;;;;;;;10.93;5.03;;;16.30;99.90;;;17.15;68.29;100974.78;4956050;28;20412;-86
2023/08/11 03:12:19;;;;;;;9.48;5.47;;;16.40;99.90;;;17.09;68.58;100963.09;4987328;28;20050;-86
2023/08/11 03:14:47;;;;;;;10.85;5.20;;;16.30;99.90;;;17.07;68.60;100962.50;4972968;28;20098;-85
2023/08/11 03:17:14;;;;;;;6.55;4.95;;;16.30;99.90;;;17.09;68.53;100959.59;4973962;28;20039;-85
2023/08/11 03:19:42;;;;;;;9.52;5.07;;;16.30;99.90;;;17.09;68.50;100954.19;4960474;28;20054;-85
2023/08/11 03:22:09;;;;;;;7.35;4.78;;;16.30;99.90;;;17.08;68.51;100955.22;4960694;28;20487;-85
2023/08/11 03:24:39;;;;;;;12.15;5.50;;;16.30;99.90;;;17.07;68.58;100956.31;4975349;28;20118;-85
2023/08/11 03:27:08;;;;;;;11.82;5.15;;;16.30;99.90;;;17.03;68.67;100956.00;4966166;28;20050;-85
2023/08/11 03:29:35;;;;;;;8.70;5.35;;;16.30;99.90;;;17.06;68.52;100960.06;4970679;28;20043;-85
2023/08/11 03:32:03;;;;;;;7.55;4.68;;;16.30;99.90;;;17.06;68.78;100954.66;4970099;28;20512;-86
2023/08/11 03:34:31;;;;;;;10.45;4.57;;;16.30;99.90;;;17.05;68.73;100953.03;4965849;28;20516;-85
2023/08/11 03:36:59;;;;;;;11.20;4.88;;;16.30;99.90;;;17.02;68.88;100954.31;4966989;28;20049;-85
2023/08/11 03:39:26;;;;;;;9.40;4.88;;;16.30;99.90;;;17.02;68.90;100959.72;4971117;28;20512;-85
2023/08/11 03:41:55;;;;;;;9.45;4.85;;;16.30;99.90;;;17.01;68.70;100949.19;4968778;28;20050;-85
2023/08/11 03:44:24;;;;;;;6.82;4.85;;;16.20;99.90;;;17.02;68.50;100950.81;4971705;28;20583;-85
2023/08/11 03:46:51;;;;;;;7.85;4.80;;;16.20;99.90;;;17.02;68.90;100958.91;4976856;28;20575;-85
2023/08/11 03:49:19;;;;;;;9.70;5.28;;;16.20;99.90;;;17.02;68.79;100956.22;4965272;28;20050;-85
2023/08/11 03:51:46;;;;;;;7.82;4.97;;;16.20;99.90;;;16.99;68.89;100952.94;4979029;28;20066;-85
2023/08/11 03:54:14;;;;;;;6.50;4.70;;;16.20;99.90;;;16.98;68.70;100954.03;4970498;28;20584;-85
2023/08/11 03:56:41;;;;;;;8.15;5.28;;;16.20;99.90;;;16.96;68.65;100960.69;4974574;28;20043;-85
2023/08/11 03:59:10;;;;;;;8.27;4.82;;;16.20;99.90;;;16.95;68.75;100957.19;4962655;28;20082;-85
2023/08/11 04:01:38;;;;;;;6.85;5.07;;;16.20;99.90;;;16.95;68.83;100959.88;4964206;28;20511;-85
2023/08/11 04:04:06;;;;;;;8.60;4.68;;;16.20;99.90;;;16.95;68.59;100965.25;4955765;28;20082;-85
2023/08/11 04:06:33;;;;;;;7.30;4.90;;;16.20;99.90;;;16.94;68.86;100965.53;4961041;28;20051;-85
2023/08/11 04:09:02;;;;;;;6.40;4.80;;;16.20;99.90;;;16.94;68.81;100952.03;4980052;28;20500;-86
2023/08/11 04:11:31;;;;;;;7.43;5.07;;;16.20;99.90;;;16.90;68.69;100959.78;4979722;28;20069;-85
2023/08/11 04:13:58;;;;;;;9.80;5.20;;;16.10;99.90;;;16.89;68.67;100960.84;4961849;28;20051;-85
2023/08/11 04:16:28;;;;;;;8.73;5.15;;;16.10;99.90;;;16.90;68.78;100967.88;4970172;28;20408;-86
2023/08/11 04:18:55;;;;;;;8.02;4.93;;;16.10;99.90;;;16.89;68.73;100960.03;4982198;28;20598;-85
2023/08/11 04:21:24;;;;;;;6.85;4.65;;;16.10;99.90;;;16.86;68.77;100955.94;4956601;28;20632;-85
2023/08/11 04:23:51;;;;;;;9.65;5.07;;;16.10;99.90;;;16.87;68.94;100959.44;4973595;28;20530;-84
2023/08/11 04:26:18;;;;;;;9.52;4.72;;;16.10;99.90;;;16.84;69.42;100960.75;4964909;28;20053;-83
2023/08/11 04:28:46;;;;;;;8.65;5.20;;;16.10;99.90;;;16.85;69.50;100957.00;4971131;28;20048;-84
2023/08/11 04:31:15;;;;;;;9.68;5.18;;;16.20;99.90;;;16.85;69.45;100954.31;4966374;28;20075;-84
2023/08/11 04:33:44;;;;;;;6.35;4.90;;;16.20;99.90;;;16.87;69.64;100957.56;4965641;28;20047;-84
2023/08/11 04:36:13;;;;;;;6.90;4.65;;;16.20;99.90;;;16.88;69.67;100956.50;4954995;28;20070;-84
2023/08/11 04:38:40;;;;;;;7.82;4.47;;;16.20;99.90;;;16.92;69.89;100959.53;4981169;28;20043;-84
2023/08/11 04:41:09;;;;;;;8.20;5.22;;;16.20;99.90;;;16.91;70.03;100953.34;4979084;28;20058;-84
2023/08/11 04:43:36;;;;;;;9.05;4.80;;;16.30;99.90;;;16.91;70.20;100956.03;4970589;28;20434;-83
2023/08/11 04:46:04;;;;;;;7.72;4.47;;;16.30;99.90;;;16.91;70.07;100958.72;4978695;28;20078;-83
2023/08/11 04:48:31;;;;;;;7.68;4.45;;;16.30;99.90;;;16.92;70.39;100956.84;4939801;29;20055;-83
2023/08/11 04:51:00;;;;;;;7.55;5.10;;;16.30;99.90;;;16.91;70.56;100947.94;4962603;28;20050;-83
2023/08/11 04:53:27;;;;;;;8.50;4.80;;;16.30;99.90;;;16.94;70.62;100942.09;4963075;28;20432;-83
2023/08/11 04:55:55;;;;;;;7.82;5.22;;;16.30;99.90;;;16.96;70.91;100949.91;4962668;28;20059;-84
2023/08/11 04:58:22;;;;;;;10.88;5.88;;;16.30;99.90;;;16.98;70.89;100945.94;4986432;28;20047;-83
2023/08/11 05:00:50;;;;;;;10.40;5.45;;;16.40;99.90;;;17.05;71.11;100953.84;4964928;28;20047;-83
2023/08/11 05:03:19;;;;;;;10.90;5.22;;;16.40;99.90;;;17.11;71.09;100949.38;4977064;28;20050;-83
2023/08/11 05:05:46;;;;;;;10.55;5.03;;;16.50;99.90;;;17.16;71.34;100952.97;4970768;28;20039;-83
2023/08/11 05:08:15;;;;;;;10.57;5.20;;;16.60;99.90;;;17.21;70.98;100949.53;4975533;28;20047;-83
2023/08/11 05:10:42;;;;;;;11.05;5.32;;;16.60;99.90;;;17.26;71.25;100957.72;4966711;28;20047;-84
2023/08/11 05:13:09;;;;;;;10.77;5.10;;;16.70;99.90;;;17.31;71.10;100947.03;4964035;28;20464;-83
2023/08/11 05:15:37;;;;;;;10.05;5.18;;;16.80;99.90;;;17.35;71.02;100945.47;4985273;23;20053;-82
2023/08/11 05:18:05;;;;;;;13.27;5.40;;;16.80;99.90;;;17.38;71.32;100952.28;4945655;28;20403;-82
2023/08/11 05:20:32;;;;;;;8.82;4.78;;;16.90;99.90;;;17.40;71.49;100950.94;4954440;28;20130;-83
2023/08/11 05:23:00;;;;;;;10.70;5.47;;;16.80;99.90;;;17.34;72.28;100960.03;4952662;29;20062;-82
2023/08/11 05:25:28;;;;;;;10.98;5.53;;;16.90;99.90;;;17.46;71.72;100960.75;4945098;28;20075;-81
2023/08/11 05:27:56;;;;;;;12.85;5.20;;;17.00;99.90;;;17.54;71.71;100954.16;4952437;28;20544;-81
2023/08/11 05:30:27;;;;;;;9.85;5.20;;;17.10;99.90;;;17.64;70.96;100962.41;4942231;28;20043;-81
2023/08/11 05:32:56;;;;;;;;;;;17.20;99.90;;;17.73;71.20;100957.44;4950728;28;20046;-81
2023/08/11 05:35:24;;;;;;;10.45;5.28;;;17.30;99.90;;;17.81;70.79;100950.78;4947914;28;19922;-81
2023/08/11 05:37:51;;;;;;;11.00;5.68;;;17.50;99.90;;;17.90;70.42;100950.13;4945619;28;20061;-81
2023/08/11 05:40:18;;;;;;;11.18;5.22;;;17.60;99.90;;;17.96;69.95;100953.75;4939247;28;20499;-81
2023/08/11 05:42:47;;;;;;;15.25;5.75;;;17.70;99.90;;;18.04;69.77;100958.69;4958426;28;20054;-81
2023/08/11 05:45:15;;;;;;;9.50;5.03;;;17.80;99.90;;;18.09;69.05;100961.47;4947447;28;20058;-82
2023/08/11 05:47:42;;;;;;;12.05;5.03;;;17.90;99.90;;;18.20;69.49;100959.72;4942962;28;20055;-81
2023/08/11 05:50:10;;;;;;;13.90;5.22;;;18.00;99.90;;;18.28;69.30;100962.81;4938897;29;20046;-81
2023/08/11 05:52:37;;;;;;;9.68;5.15;;;18.20;99.90;;;18.33;68.34;100953.97;4934920;29;20135;-82
2023/08/11 05:55:06;;;;;;;7.22;4.28;;;18.20;99.90;;;18.39;68.95;100952.13;4948622;28;20526;-87
2023/08/11 05:57:33;;;;;;;13.85;4.88;;;18.30;99.90;;;18.43;68.17;100945.16;4957847;28;20048;-82
2023/08/11 06:00:03;;;;;;;9.73;4.50;;;18.30;99.90;;;18.41;68.60;100953.53;4936490;28;20730;-82
2023/08/11 06:02:40;;;;;;;8.45;4.55;;;18.30;99.90;;;18.40;67.63;100945.69;4943541;28;20564;-82
2023/08/11 06:05:08;;;;;;;11.30;4.75;;;18.30;99.90;;;18.45;68.32;100945.75;4963639;28;20090;-82
2023/08/11 06:07:35;;;;;;;11.18;4.53;;;18.30;99.90;;;18.50;68.19;100948.50;4958006;28;20568;-81
2023/08/11 06:10:02;;;;;;;9.13;4.38;;;18.40;99.90;;;18.56;68.51;100938.56;4948526;28;20047;-82
2023/08/11 06:12:30;;;;;;;10.73;5.00;;;18.40;99.90;;;18.59;68.30;100938.06;4952597;28;20039;-82
2023/08/11 06:14:58;;;;;;;13.00;5.05;;;18.50;99.90;;;18.64;68.82;100935.41;4945062;28;20067;-82
2023/08/11 06:17:27;;;;;;;10.57;4.90;;;18.60;99.90;;;18.70;69.37;100935.25;4950491;28;20102;-82
2023/08/11 06:19:54;;;;;;;12.40;5.00;;;18.70;99.90;;;18.78;69.30;100937.50;4950133;28;20130;-83
2023/08/11 06:22:21;;;;;;;7.30;4.80;;;18.70;99.90;;;18.87;68.97;100934.34;4950385;28;20035;-85
2023/08/11 06:24:48;;;;;;;9.23;4.78;;;18.80;99.90;;;18.97;68.48;100937.16;4954938;28;20063;-85
2023/08/11 06:27:16;;;;;;;9.77;4.28;;;18.90;99.90;;;19.07;68.52;100941.84;4949695;28;20083;-85
2023/08/11 06:29:43;;;;;;;10.75;4.38;;;19.10;99.90;;;19.16;69.46;100932.19;4960413;28;20051;-85
2023/08/11 06:32:10;;;;;;;8.20;4.38;;;19.20;99.90;;;19.28;69.32;100928.25;4957040;28;20107;-84
2023/08/11 06:34:39;;;;;;;9.13;4.18;;;19.40;99.90;;;19.41;68.13;100932.41;4955019;28;20043;-85
2023/08/11 06:37:06;;;;;;;11.20;4.47;;;19.50;99.90;;;19.51;67.24;100932.47;4964384;28;20071;-85
2023/08/11 06:39:34;;;;;;;7.55;4.05;;;19.60;99.90;;;19.62;68.04;100929.88;4956305;29;20126;-85
2023/08/11 06:42:01;;;;;;;7.15;3.92;;;19.80;99.90;;;19.71;67.92;100931.81;4956900;28;20039;-85
2023/08/11 06:44:52;;;;;;;;;;;19.90;99.90;;;19.85;67.69;100923.25;4958803;28;20055;-84
2023/08/11 06:47:20;;;;;;;5.80;3.75;;;20.00;99.90;;;19.93;69.19;100934.41;4953967;28;19923;-85
2023/08/11 06:49:49;;;;;;;7.45;3.45;;;20.10;99.90;;;19.99;68.51;100933.34;4956528;28;20047;-84
2023/08/11 06:52:16;;;;;;;8.25;2.90;;;20.20;99.90;;;20.03;66.39;100929.06;4963445;28;20142;-85
2023/08/11 06:54:43;;;;;;;9.48;2.80;;;20.30;99.70;;;20.12;65.56;100931.28;4954301;28;20035;-85
2023/08/11 06:57:10;;;;;;;10.30;3.13;;;20.40;98.60;;;20.18;62.10;100925.59;4952635;29;20109;-84
2023/08/11 06:59:38;;;;;;;9.05;2.80;;;20.40;95.40;;;20.25;62.12;100930.78;4947822;29;20162;-85
2023/08/11 07:02:06;;;;;;;8.68;2.67;;;20.50;95.00;;;20.37;63.36;100923.25;4956376;29;20444;-85
2023/08/11 07:04:33;;;;;;;8.00;3.05;;;20.60;95.70;;;20.47;63.96;100930.63;4947815;28;20464;-85
2023/08/11 07:07:02;;;;;;;5.22;2.83;;;20.80;96.70;;;20.54;63.92;100932.00;4956466;28;20043;-85
2023/08/11 07:09:29;;;;;;;8.27;3.08;;;20.80;96.40;;;20.62;62.72;100932.59;4954462;29;20051;-84
2023/08/11 07:11:56;;;;;;;7.82;3.28;;;20.90;95.10;;;20.67;62.60;100938.81;4952588;28;20043;-85
2023/08/11 07:14:25;;;;;;;9.82;2.88;;;21.00;95.10;;;20.77;61.52;100933.44;4955990;28;20054;-84
2023/08/11 07:16:52;;;;;;;8.00;2.95;;;21.10;94.00;;;20.82;63.22;100938.06;4946286;29;20405;-84
2023/08/11 07:19:20;;;;;;;7.57;3.03;;;21.10;95.60;;;20.87;61.48;100934.53;4948176;28;20138;-84
2023/08/11 07:21:47;;;;;;;9.73;3.35;;;21.20;94.20;;;20.94;60.72;100933.22;4969944;28;20064;-85
2023/08/11 07:24:16;;;;;;;8.32;2.65;;;21.30;93.00;;;21.00;60.52;100940.25;4947732;28;20047;-85
2023/08/11 07:26:43;;;;;;;6.80;2.83;;;21.30;92.40;;;21.09;61.93;100940.56;4950491;29;20057;-85
2023/08/11 07:29:11;;;;;;;7.47;3.00;;;21.40;94.00;;;21.17;62.67;100941.91;4954314;28;20464;-84
2023/08/11 07:31:39;;;;;;;5.65;2.83;;;21.50;94.80;;;21.25;62.39;100949.50;4956033;28;20121;-85
2023/08/11 07:34:06;;;;;;;7.75;3.00;;;21.60;94.40;;;21.33;61.50;100940.88;4951700;29;20485;-85
2023/08/11 07:36:33;;;;;;;6.93;2.72;;;21.60;93.40;;;21.41;60.10;100937.59;4952835;28;20055;-85
2023/08/11 07:39:01;;;;;;;8.20;2.55;;;21.70;92.20;;;21.45;59.22;100943.28;4955737;28;20047;-85
2023/08/11 07:41:30;;;;;;;8.90;2.95;;;21.80;90.80;;;21.49;59.77;100944.38;4952401;29;20443;-85
2023/08/11 07:43:57;;;;;;;7.65;2.63;;;21.80;91.40;;;21.52;59.04;100944.66;4940836;29;20054;-82
2023/08/11 07:46:24;;;;;;;7.50;2.75;;;21.90;91.20;;;21.59;60.70;100936.22;4947502;28;20470;-82
2023/08/11 07:48:51;;;;;;;7.38;2.95;;;21.90;92.60;;;21.61;60.21;100942.19;4946126;29;20095;-82
2023/08/11 07:51:19;;;;;;;7.85;2.70;;;22.00;92.10;;;21.68;60.08;100944.66;4952949;29;20058;-82
2023/08/11 07:53:46;;;;;;;7.32;3.03;;;22.00;91.80;;;21.73;59.65;100942.72;4953097;28;20130;-82
2023/08/11 07:56:13;;;;;;;6.45;2.80;;;22.00;91.20;;;21.82;59.02;100945.72;4960758;28;20052;-82
2023/08/11 07:58:42;;;;;;;10.70;2.75;;;22.10;90.20;;;21.89;58.75;100948.94;4953592;28;20049;-82
2023/08/11 08:01:10;;;;;;;7.65;2.92;;;22.20;89.80;;;21.95;57.69;100947.84;4944857;28;20516;-84
2023/08/11 08:03:38;;;;;;;12.13;3.05;;;22.30;89.50;;;22.00;56.69;100945.09;4949258;29;20051;-83
2023/08/11 08:06:06;;;;;;;5.70;2.40;;;22.40;88.00;;;22.07;57.32;100947.56;4950812;28;20055;-83
2023/08/11 08:08:34;;;;;;;5.68;2.88;;;22.40;88.40;;;22.15;58.53;100946.19;4944219;28;20111;-83
2023/08/11 08:11:01;;;;;;;5.10;2.65;;;22.50;89.70;;;22.21;58.69;100956.78;4952030;28;20110;-83
2023/08/11 08:13:29;;;;;;;5.43;3.00;;;22.60;89.60;;;22.29;57.88;100953.47;4948807;29;20440;-83
2023/08/11 08:15:58;;;;;;;7.40;2.92;;;22.60;88.70;;;22.35;56.20;100956.97;4945572;28;20078;-83
2023/08/11 08:18:25;;;;;;;9.80;2.80;;;22.70;86.90;;;22.40;56.44;100959.69;4948695;28;20424;-83
2023/08/11 08:20:52;;;;;;;9.60;3.10;;;22.80;87.10;;;22.48;55.25;100955.56;4951707;28;20066;-83
2023/08/11 08:23:20;;;;;;;6.70;2.67;;;22.90;85.90;;;22.54;55.47;100959.88;4955101;28;20039;-83
2023/08/11 08:25:48;;;;;;;7.20;2.80;;;22.90;85.90;;;22.61;55.78;100957.69;4955316;28;20054;-84
2023/08/11 08:28:16;;;;;;;9.98;3.00;;;23.00;86.10;;;22.71;56.23;100960.34;4954037;28;20043;-83
2023/08/11 08:30:43;;;;;;;5.90;2.60;;;23.10;86.70;;;22.74;57.80;100954.38;4949056;28;20039;-83
2023/08/11 08:33:12;;;;;;;7.13;2.78;;;23.10;87.70;;;22.80;56.26;100963.31;4952377;28;20043;-83
2023/08/11 08:35:39;;;;;;;5.30;2.85;;;23.20;86.20;;;22.86;54.18;100965.72;4941849;29;20078;-83
2023/08/11 08:38:06;;;;;;;5.57;2.75;;;23.30;84.20;;;22.88;53.46;100960.81;4943335;29;20061;-83
2023/08/11 08:40:36;;;;;;;6.50;2.90;;;23.30;83.20;;;22.94;54.40;100958.09;4938004;28;20078;-83
2023/08/11 08:43:04;;;;;;;5.65;2.97;;;23.30;84.40;;;22.97;55.68;100961.03;4944723;28;20039;-82
2023/08/11 08:45:32;;;;;;;9.18;3.05;;;23.40;85.40;;;23.03;54.22;100956.38;4945284;28;20058;-82
2023/08/11 08:48:00;;;;;;;9.15;3.10;;;23.40;83.70;;;23.05;55.04;100960.47;4943328;29;20140;-82
2023/08/11 08:50:29;;;;;;;5.82;3.22;;;23.40;84.50;;;23.13;53.14;100962.59;4946909;29;20093;-82
2023/08/11 08:52:57;;;;;;;5.53;2.70;;;23.50;82.70;;;23.18;55.07;100958.19;4953061;29;20042;-82
2023/08/11 08:55:25;;;;;;;6.00;2.78;;;23.50;84.30;;;23.29;52.59;100957.84;4950080;28;20141;-83
2023/08/11 08:57:53;;;;;;;4.85;2.60;;;23.60;82.00;;;23.33;52.87;100958.09;4951480;28;20051;-83
2023/08/11 09:00:21;;;;;;;8.32;2.85;;;23.70;82.10;;;23.37;52.57;100957.19;4940859;28;20528;-82
2023/08/11 09:02:49;;;;;;;8.57;2.97;;;23.80;81.60;;;23.39;53.33;100959.66;4941177;28;20507;-82
2023/08/11 09:05:17;;;;;;;6.20;3.28;;;23.80;82.20;;;23.48;53.62;100960.69;4950244;28;20056;-87
2023/08/11 09:07:46;;;;;;;5.28;2.60;;;23.90;82.70;;;23.50;52.98;100960.38;4957756;28;20146;-83
2023/08/11 09:10:14;;;;;;;7.38;2.88;;;23.90;81.80;;;23.54;50.48;100958.72;4949024;28;20134;-83
2023/08/11 09:12:44;;;;;;;5.55;3.00;;;23.90;80.00;;;23.53;54.25;100960.63;4947681;28;20064;-84
2023/08/11 09:15:13;;;;;;;5.00;2.80;;;24.00;82.50;;;23.59;50.60;100962.22;4957877;28;20123;-84
2023/08/11 09:17:41;;;;;;;5.30;2.80;;;24.00;78.80;;;23.64;53.66;100962.19;4969541;28;20051;-84
2023/08/11 09:20:12;;;;;;;5.47;2.30;;;24.10;82.50;;;23.68;50.15;100958.91;4955762;28;20047;-84
2023/08/11 09:22:41;;;;;;;8.50;2.70;;;24.10;78.40;;;23.75;52.62;100952.00;4963421;29;20119;-84
2023/08/11 09:25:12;;;;;;;7.93;2.75;;;24.20;81.00;;;23.72;50.52;100952.59;4972873;28;20027;-87
2023/08/11 09:27:39;;;;;;;5.80;2.70;;;24.20;78.60;;;23.76;51.00;100950.91;4985452;28;20107;-87
2023/08/11 09:30:10;;;;;;;6.03;2.50;;;24.20;79.30;;;23.80;51.29;100948.41;4971883;28;20062;-87
2023/08/11 09:32:38;;;;;;;5.50;3.08;;;24.20;79.40;;;23.79;49.68;100944.06;4943388;29;20047;-87
2023/08/11 09:35:09;;;;;;;7.80;2.70;;;24.20;76.80;;;23.79;50.79;100949.53;4940795;28;20103;-88
2023/08/11 09:37:36;;;;;;;7.60;2.50;;;24.20;78.70;;;23.82;51.32;100943.50;4966737;28;20135;-87
2023/08/11 09:40:06;;;;;;;4.10;2.28;;;24.30;79.90;;;23.90;52.28;100946.41;4953557;29;20063;-87
2023/08/11 09:42:35;;;;;;;6.65;2.45;;;24.30;80.30;;;23.92;53.50;100940.69;4951990;28;20039;-87
2023/08/11 09:45:02;;;;;;;8.30;2.78;;;24.40;81.40;;;23.94;51.03;100943.09;4967161;28;20058;-87
2023/08/11 09:47:30;;;;;;;4.88;2.72;;;24.40;78.80;;;23.98;51.95;100947.69;4950544;28;20048;-88
2023/08/11 09:49:58;;;;;;;6.47;2.53;;;24.40;79.40;;;24.02;50.93;100945.22;4962606;28;20079;-88
2023/08/11 09:52:27;;;;;;;5.20;2.58;;;24.50;78.60;;;24.08;50.89;100944.84;4955100;28;20044;-87
2023/08/11 09:54:57;;;;;;;7.47;2.35;;;24.50;78.70;;;24.12;47.89;100950.53;4948506;28;20074;-88
2023/08/11 09:57:26;;;;;;;4.30;2.15;;;24.50;75.40;;;24.21;50.49;100953.44;4977388;28;20055;-87
2023/08/11 09:59:57;;;;;;;8.13;2.47;;;24.70;77.80;;;24.19;50.55;100959.16;4948562;28;20180;-87
2023/08/11 10:02:30;;;;;;;5.15;2.78;;;24.70;78.00;;;24.18;49.22;100954.00;4962969;28;20072;-87
2023/08/11 10:05:08;;;;;;;5.85;2.58;;;24.60;76.00;;;24.20;48.67;100959.97;4947154;29;20047;-85
2023/08/11 10:07:40;;;;;;;8.70;2.78;;;24.70;76.40;;;24.28;46.41;100953.88;4962502;28;20074;-84
2023/08/11 10:10:14;;;;;;;6.40;2.80;;;24.70;73.10;;;24.26;49.72;100956.09;4953796;28;20103;-85
2023/08/11 10:12:48;;;;;;;6.35;2.78;;;24.70;76.40;;;24.27;47.88;100953.09;4936426;29;20043;-85
2023/08/11 10:15:22;;;;;;;3.85;2.25;;;24.70;74.50;;;24.27;49.64;100952.28;4951593;29;20588;-87
2023/08/11 10:17:50;;;;;;;5.72;2.38;;;24.70;75.80;;;24.25;49.43;100949.00;4951123;29;20122;-87